Wednesday, December 12, 2018, 11:36 PM EST
Back to Local

KIJD, Willimantic Windham Airport

Location: North Windham, CT, United States Lat: 41.75
Local Time: 11:36 PM EST ( 4:36 GMT) Lon: -72.183
Time Zone: US/Eastern Elev: 246 ft

Show me the last for .
Show Coded

Time T Td Feel RH Dir Speed Gust Alt SLP Vis Weather Sky Remarks
2018-12-12 22:52 22 12 14 65 30° 6 - 30.30 30.31 10 CLR None
2018-12-12 21:52 22 13 14 67 20° 6 - 30.30 30.30 10 CLR None
2018-12-12 20:52 25 15 19 65 50° 5 - 30.27 30.27 10 CLR None
2018-12-12 19:52 28 16 21 60 360° 7 - 30.25 30.26 10 CLR None
2018-12-12 18:52 28 17 - 62 - Calm - 30.22 30.22 10 CLR 6-hr Min Temp (7pm): 28.0°F
6-hr Max Temp (7pm): 37.9°F
2018-12-12 17:52 29 17 22 60 20° 7 - 30.18 30.19 10 CLR None
2018-12-12 16:52 32 18 27 55 340° 5 - 30.17 30.18 10 CLR None
2018-12-12 15:52 35 18 24 49 310° 8 21 30.13 30.13 10 CLR None
2018-12-12 14:52 37 18 31 45 340° 8 - 30.09 30.09 10 CLR None
2018-12-12 13:52 37 17 26 43 350° 14 23 30.07 30.07 10 CLR Peak wind: 29 mph (26 kts) from 320° at 14 min
2018-12-12 12:52 37 16 25 41 320° 17 26 30.07 30.08 10 FEW050 6-hr Min Temp (1pm): 25.0°F
6-hr Max Temp (1pm): 37.9°F
2018-12-12 11:52 37 17 27 43 320° 9 17 30.07 30.07 10 FEW050 None
2018-12-12 10:52 36 19 30 49 300° 8 - 30.07 30.08 10 CLR None
2018-12-12 09:52 33 20 27 58 Variable 7 - 30.06 30.07 10 CLR None
2018-12-12 08:52 30 21 22 68 320° 8 - 30.05 30.05 10 SCT060 None
2018-12-12 07:52 28 21 22 74 290° 6 - 30.03 30.03 10 BKN041 BKN070 None
2018-12-12 06:52 27 20 23 74 300° 3 - 30.00 30.01 10 SCT075 6-hr Min Temp (7am): 24.1°F
6-hr Max Temp (7am): 30.0°F
2018-12-12 05:52 27 20 23 74 300° 3 - 29.97 29.98 10 OVC075 None
2018-12-12 04:52 26 19 22 74 340° 3 - 29.95 29.96 10 None
2018-12-12 03:52 26 19 22 74 Variable 3 - 29.93 29.94 10 FEW120 None
2018-12-12 02:52 27 19 19 71 340° 8 - 29.92 29.93 10 FEW120 None
2018-12-12 01:52 29 20 21 68 320° 8 - 29.91 29.92 10 SCT060 None
2018-12-12 00:52 30 22 24 71 340° 6 - 29.90 29.90 10 OVC050 6-hr Min Temp (1am): 28.0°F
6-hr Max Temp (1am): 30.0°F
2018-12-11 23:52 29 24 - 81 - Calm - 29.90 29.91 10 FEW042 OVC050 24-hr Min Temp (12am): 10.9°F
24-hr Max Temp (12am): 37.0°F

Support USWX by starting your Amazon purchase here.